Time,TemperatureF,DewpointF,PressureIn,WindDirection,WindDirectionDegrees,WindSpeedMPH,WindSpeedGustMPH,Humidity,HourlyPrecipIn,Conditions,Clouds,dailyrainin,SoftwareType,DateUTC
2013-02-25 00:01:00,30.0,-99.9,-100.00,East,85,5.0,6.0,-999,-99.99,,,-99.99,,2013-02-25 05:01:00,
2013-02-25 00:11:00,30.0,-99.9,-100.00,East,85,5.0,6.0,-999,-99.99,,,-99.99,,2013-02-25 05:11:00,
2013-02-25 00:22:00,30.0,-99.9,-100.00,East,85,5.0,6.0,-999,-99.99,,,-99.99,,2013-02-25 05:22:00,
2013-02-25 00:32:00,30.0,-99.9,-100.00,East,85,5.0,6.0,-999,-99.99,,,-99.99,,2013-02-25 05:32:00,
2013-02-25 00:40:00,30.0,-99.9,-100.00,East,88,4.0,5.0,-999,-99.99,,,-99.99,,2013-02-25 05:40:00,
2013-02-25 01:12:00,30.0,-99.9,-100.00,East,88,4.0,5.0,-999,-99.99,,,-99.99,,2013-02-25 06:12:00,
2013-02-25 01:22:00,30.0,-99.9,-100.00,East,88,4.0,5.0,-999,-99.99,,,-99.99,,2013-02-25 06:22:00,
2013-02-25 01:32:00,30.0,-99.9,-100.00,East,88,4.0,5.0,-999,-99.99,,,-99.99,,2013-02-25 06:32:00,
2013-02-25 01:40:00,32.0,-99.9,-100.00,SE,142,7.0,8.0,-999,-99.99,,,-99.99,,2013-02-25 06:40:00,
2013-02-25 02:01:00,32.0,-99.9,-100.00,SE,142,7.0,8.0,-999,-99.99,,,-99.99,,2013-02-25 07:01:00,
2013-02-25 02:12:00,32.0,-99.9,-100.00,SE,142,7.0,8.0,-999,-99.99,,,-99.99,,2013-02-25 07:12:00,
2013-02-25 02:22:00,32.0,-99.9,-100.00,SE,142,7.0,8.0,-999,-99.99,,,-99.99,,2013-02-25 07:22:00,
2013-02-25 02:32:00,32.0,-99.9,-100.00,SE,142,7.0,8.0,-999,-99.99,,,-99.99,,2013-02-25 07:32:00,
2013-02-25 02:40:00,29.0,-99.9,-100.00,WSW,251,4.0,5.0,-999,-99.99,,,-99.99,,2013-02-25 07:40:00,
2013-02-25 03:01:00,29.0,-99.9,-100.00,WSW,251,4.0,5.0,-999,-99.99,,,-99.99,,2013-02-25 08:01:00,
2013-02-25 03:11:00,29.0,-99.9,-100.00,WSW,251,4.0,5.0,-999,-99.99,,,-99.99,,2013-02-25 08:11:00,
2013-02-25 03:22:00,29.0,-99.9,-100.00,WSW,251,4.0,5.0,-999,-99.99,,,-99.99,,2013-02-25 08:22:00,
2013-02-25 03:32:00,29.0,-99.9,-100.00,WSW,251,4.0,5.0,-999,-99.99,,,-99.99,,2013-02-25 08:32:00,
2013-02-25 03:40:00,30.0,-99.9,-100.00,SSW,203,2.0,4.0,-999,-99.99,,,-99.99,,2013-02-25 08:40:00,
2013-02-25 04:02:00,30.0,-99.9,-100.00,SSW,203,2.0,4.0,-999,-99.99,,,-99.99,,2013-02-25 09:02:00,
2013-02-25 04:12:00,30.0,-99.9,-100.00,SSW,203,2.0,4.0,-999,-99.99,,,-99.99,,2013-02-25 09:12:00,
2013-02-25 04:21:00,30.0,-99.9,-100.00,SSW,203,2.0,4.0,-999,-99.99,,,-99.99,,2013-02-25 09:21:00,
2013-02-25 04:32:00,30.0,-99.9,-100.00,SSW,203,2.0,4.0,-999,-99.99,,,-99.99,,2013-02-25 09:32:00,
2013-02-25 04:40:00,29.0,-99.9,-100.00,WNW,294,2.0,4.0,-999,-99.99,,,-99.99,,2013-02-25 09:40:00,
2013-02-25 05:01:00,29.0,-99.9,-100.00,WNW,294,2.0,4.0,-999,-99.99,,,-99.99,,2013-02-25 10:01:00,
2013-02-25 05:11:00,29.0,-99.9,-100.00,WNW,294,2.0,4.0,-999,-99.99,,,-99.99,,2013-02-25 10:11:00,
2013-02-25 05:22:00,29.0,-99.9,-100.00,WNW,294,2.0,4.0,-999,-99.99,,,-99.99,,2013-02-25 10:22:00,
2013-02-25 05:32:00,29.0,-99.9,-100.00,WNW,294,2.0,4.0,-999,-99.99,,,-99.99,,2013-02-25 10:32:00,
2013-02-25 05:40:00,29.0,-99.9,-100.00,North,-999,0.0,0.0,-999,-99.99,,,-99.99,,2013-02-25 10:40:00,
2013-02-25 06:02:00,29.0,-99.9,-100.00,North,-999,0.0,0.0,-999,-99.99,,,-99.99,,2013-02-25 11:02:00,
2013-02-25 06:11:00,29.0,-99.9,-100.00,North,-999,0.0,0.0,-999,-99.99,,,-99.99,,2013-02-25 11:11:00,
2013-02-25 06:22:00,29.0,-99.9,-100.00,North,-999,0.0,0.0,-999,-99.99,,,-99.99,,2013-02-25 11:22:00,
2013-02-25 06:32:00,29.0,-99.9,-100.00,North,-999,0.0,0.0,-999,-99.99,,,-99.99,,2013-02-25 11:32:00,
2013-02-25 06:40:00,29.0,-99.9,-100.00,SW,226,2.0,2.0,-999,-99.99,,,-99.99,,2013-02-25 11:40:00,
2013-02-25 07:02:00,29.0,-99.9,-100.00,SW,226,2.0,2.0,-999,-99.99,,,-99.99,,2013-02-25 12:02:00,
2013-02-25 07:11:00,29.0,-99.9,-100.00,SW,226,2.0,2.0,-999,-99.99,,,-99.99,,2013-02-25 12:11:00,
2013-02-25 07:22:00,29.0,-99.9,-100.00,SW,226,2.0,2.0,-999,-99.99,,,-99.99,,2013-02-25 12:22:00,
2013-02-25 07:32:00,29.0,-99.9,-100.00,SW,226,2.0,2.0,-999,-99.99,,,-99.99,,2013-02-25 12:32:00,
2013-02-25 07:40:00,28.0,-99.9,-100.00,SW,232,1.0,3.0,-999,-99.99,,,-99.99,,2013-02-25 12:40:00,
2013-02-25 08:03:00,28.0,-99.9,-100.00,SW,232,1.0,3.0,-999,-99.99,,,-99.99,,2013-02-25 13:03:00,
2013-02-25 08:12:00,28.0,-99.9,-100.00,SW,232,1.0,3.0,-999,-99.99,,,-99.99,,2013-02-25 13:12:00,
2013-02-25 08:23:00,28.0,-99.9,-100.00,SW,232,1.0,3.0,-999,-99.99,,,-99.99,,2013-02-25 13:23:00,
2013-02-25 08:32:00,28.0,-99.9,-100.00,SW,232,1.0,3.0,-999,-99.99,,,-99.99,,2013-02-25 13:32:00,
2013-02-25 08:40:00,29.0,-99.9,-100.00,South,170,3.0,4.0,-999,-99.99,,,-99.99,,2013-02-25 13:40:00,
2013-02-25 09:04:00,29.0,-99.9,-100.00,South,170,3.0,4.0,-999,-99.99,,,-99.99,,2013-02-25 14:04:00,
2013-02-25 09:18:00,29.0,-99.9,-100.00,South,170,3.0,4.0,-999,-99.99,,,-99.99,,2013-02-25 14:18:00,
2013-02-25 09:32:00,29.0,-99.9,-100.00,South,170,3.0,4.0,-999,-99.99,,,-99.99,,2013-02-25 14:32:00,
2013-02-25 09:40:00,30.0,-99.9,-100.00,South,184,8.0,9.0,-999,-99.99,,,-99.99,,2013-02-25 14:40:00,
2013-02-25 10:03:00,30.0,-99.9,-100.00,South,184,8.0,9.0,-999,-99.99,,,-99.99,,2013-02-25 15:03:00,
2013-02-25 10:11:00,30.0,-99.9,-100.00,South,184,8.0,9.0,-999,-99.99,,,-99.99,,2013-02-25 15:11:00,
2013-02-25 10:22:00,30.0,-99.9,-100.00,South,184,8.0,9.0,-999,-99.99,,,-99.99,,2013-02-25 15:22:00,
2013-02-25 10:32:00,30.0,-99.9,-100.00,South,184,8.0,9.0,-999,-99.99,,,-99.99,,2013-02-25 15:32:00,
2013-02-25 10:40:00,32.0,-99.9,-100.00,SW,216,8.0,8.0,-999,-99.99,,,-99.99,,2013-02-25 15:40:00,
2013-02-25 11:02:00,32.0,-99.9,-100.00,SW,216,8.0,8.0,-999,-99.99,,,-99.99,,2013-02-25 16:02:00,
2013-02-25 11:12:00,32.0,-99.9,-100.00,SW,216,8.0,8.0,-999,-99.99,,,-99.99,,2013-02-25 16:12:00,
2013-02-25 11:22:00,32.0,-99.9,-100.00,SW,216,8.0,8.0,-999,-99.99,,,-99.99,,2013-02-25 16:22:00,
2013-02-25 11:32:00,32.0,-99.9,-100.00,SW,216,8.0,8.0,-999,-99.99,,,-99.99,,2013-02-25 16:32:00,
2013-02-25 11:40:00,28.0,-99.9,-100.00,WNW,302,6.0,8.0,-999,-99.99,,,-99.99,,2013-02-25 16:40:00,
2013-02-25 12:02:00,28.0,-99.9,-100.00,WNW,302,6.0,8.0,-999,-99.99,,,-99.99,,2013-02-25 17:02:00,
2013-02-25 12:11:00,28.0,-99.9,-100.00,WNW,302,6.0,8.0,-999,-99.99,,,-99.99,,2013-02-25 17:11:00,
2013-02-25 12:22:00,28.0,-99.9,-100.00,WNW,302,6.0,8.0,-999,-99.99,,,-99.99,,2013-02-25 17:22:00,
2013-02-25 12:32:00,28.0,-99.9,-100.00,WNW,302,6.0,8.0,-999,-99.99,,,-99.99,,2013-02-25 17:32:00,
2013-02-25 12:40:00,31.0,-99.9,-100.00,West,281,4.0,6.0,-999,-99.99,,,-99.99,,2013-02-25 17:40:00,
2013-02-25 13:02:00,31.0,-99.9,-100.00,West,281,4.0,6.0,-999,-99.99,,,-99.99,,2013-02-25 18:02:00,
2013-02-25 13:12:00,31.0,-99.9,-100.00,West,281,4.0,6.0,-999,-99.99,,,-99.99,,2013-02-25 18:12:00,
2013-02-25 13:22:00,31.0,-99.9,-100.00,West,281,4.0,6.0,-999,-99.99,,,-99.99,,2013-02-25 18:22:00,
2013-02-25 13:33:00,31.0,-99.9,-100.00,West,281,4.0,6.0,-999,-99.99,,,-99.99,,2013-02-25 18:33:00,
2013-02-25 13:40:00,37.0,-99.9,-100.00,WSW,242,4.0,5.0,-999,-99.99,,,-99.99,,2013-02-25 18:40:00,
2013-02-25 14:02:00,37.0,-99.9,-100.00,WSW,242,4.0,5.0,-999,-99.99,,,-99.99,,2013-02-25 19:02:00,
2013-02-25 14:11:00,37.0,-99.9,-100.00,WSW,242,4.0,5.0,-999,-99.99,,,-99.99,,2013-02-25 19:11:00,
2013-02-25 14:22:00,37.0,-99.9,-100.00,WSW,242,4.0,5.0,-999,-99.99,,,-99.99,,2013-02-25 19:22:00,
2013-02-25 14:32:00,37.0,-99.9,-100.00,WSW,242,4.0,5.0,-999,-99.99,,,-99.99,,2013-02-25 19:32:00,
2013-02-25 14:40:00,33.0,-99.9,-100.00,SW,227,8.0,10.0,-999,-99.99,,,-99.99,,2013-02-25 19:40:00,
2013-02-25 15:01:00,33.0,-99.9,-100.00,SW,227,8.0,10.0,-999,-99.99,,,-99.99,,2013-02-25 20:01:00,
2013-02-25 15:11:00,33.0,-99.9,-100.00,SW,227,8.0,10.0,-999,-99.99,,,-99.99,,2013-02-25 20:11:00,
2013-02-25 15:22:00,33.0,-99.9,-100.00,SW,227,8.0,10.0,-999,-99.99,,,-99.99,,2013-02-25 20:22:00,
2013-02-25 15:32:00,33.0,-99.9,-100.00,SW,227,8.0,10.0,-999,-99.99,,,-99.99,,2013-02-25 20:32:00,
2013-02-25 15:40:00,31.0,-99.9,-100.00,SSW,200,10.0,12.0,-999,-99.99,,,-99.99,,2013-02-25 20:40:00,
2013-02-25 16:02:00,31.0,-99.9,-100.00,SSW,200,10.0,12.0,-999,-99.99,,,-99.99,,2013-02-25 21:02:00,
2013-02-25 16:11:00,31.0,-99.9,-100.00,SSW,200,10.0,12.0,-999,-99.99,,,-99.99,,2013-02-25 21:11:00,
2013-02-25 16:22:00,31.0,-99.9,-100.00,SSW,200,10.0,12.0,-999,-99.99,,,-99.99,,2013-02-25 21:22:00,
2013-02-25 16:32:00,31.0,-99.9,-100.00,SSW,200,10.0,12.0,-999,-99.99,,,-99.99,,2013-02-25 21:32:00,
2013-02-25 16:40:00,32.0,-99.9,-100.00,SSW,205,9.0,11.0,-999,-99.99,,,-99.99,,2013-02-25 21:40:00,
2013-02-25 17:02:00,32.0,-99.9,-100.00,SSW,205,9.0,11.0,-999,-99.99,,,-99.99,,2013-02-25 22:02:00,
2013-02-25 17:11:00,32.0,-99.9,-100.00,SSW,205,9.0,11.0,-999,-99.99,,,-99.99,,2013-02-25 22:11:00,
2013-02-25 17:22:00,32.0,-99.9,-100.00,SSW,205,9.0,11.0,-999,-99.99,,,-99.99,,2013-02-25 22:22:00,
2013-02-25 17:32:00,32.0,-99.9,-100.00,SSW,205,9.0,11.0,-999,-99.99,,,-99.99,,2013-02-25 22:32:00,
2013-02-25 17:40:00,32.0,-99.9,-100.00,South,171,7.0,9.0,-999,-99.99,,,-99.99,,2013-02-25 22:40:00,
2013-02-25 18:01:00,32.0,-99.9,-100.00,South,171,7.0,9.0,-999,-99.99,,,-99.99,,2013-02-25 23:01:00,
2013-02-25 18:11:00,32.0,-99.9,-100.00,South,171,7.0,9.0,-999,-99.99,,,-99.99,,2013-02-25 23:11:00,
2013-02-25 18:22:00,32.0,-99.9,-100.00,South,171,7.0,9.0,-999,-99.99,,,-99.99,,2013-02-25 23:22:00,
2013-02-25 18:32:00,32.0,-99.9,-100.00,South,171,7.0,9.0,-999,-99.99,,,-99.99,,2013-02-25 23:32:00,
2013-02-25 18:40:00,32.0,-99.9,-100.00,SSE,162,8.0,8.0,-999,-99.99,,,-99.99,,2013-02-25 23:40:00,
2013-02-25 19:02:00,32.0,-99.9,-100.00,SSE,162,8.0,8.0,-999,-99.99,,,-99.99,,2013-02-26 00:02:00,
2013-02-25 19:12:00,32.0,-99.9,-100.00,SSE,162,8.0,8.0,-999,-99.99,,,-99.99,,2013-02-26 00:12:00,
2013-02-25 19:22:00,32.0,-99.9,-100.00,SSE,162,8.0,8.0,-999,-99.99,,,-99.99,,2013-02-26 00:22:00,
2013-02-25 19:32:00,32.0,-99.9,-100.00,SSE,162,8.0,8.0,-999,-99.99,,,-99.99,,2013-02-26 00:32:00,
2013-02-25 19:40:00,32.0,-99.9,-100.00,SSE,150,5.0,7.0,-999,-99.99,,,-99.99,,2013-02-26 00:40:00,
2013-02-25 20:02:00,32.0,-99.9,-100.00,SSE,150,5.0,7.0,-999,-99.99,,,-99.99,,2013-02-26 01:02:00,
2013-02-25 20:11:00,32.0,-99.9,-100.00,SSE,150,5.0,7.0,-999,-99.99,,,-99.99,,2013-02-26 01:11:00,
2013-02-25 20:22:00,32.0,-99.9,-100.00,SSE,150,5.0,7.0,-999,-99.99,,,-99.99,,2013-02-26 01:22:00,
2013-02-25 20:32:00,32.0,-99.9,-100.00,SSE,150,5.0,7.0,-999,-99.99,,,-99.99,,2013-02-26 01:32:00,
2013-02-25 20:40:00,31.0,-99.9,-100.00,SE,134,4.0,4.0,-999,-99.99,,,-99.99,,2013-02-26 01:40:00,
2013-02-25 21:02:00,31.0,-99.9,-100.00,SE,134,4.0,4.0,-999,-99.99,,,-99.99,,2013-02-26 02:02:00,
2013-02-25 21:12:00,31.0,-99.9,-100.00,SE,134,4.0,4.0,-999,-99.99,,,-99.99,,2013-02-26 02:12:00,
2013-02-25 21:22:00,31.0,-99.9,-100.00,SE,134,4.0,4.0,-999,-99.99,,,-99.99,,2013-02-26 02:22:00,
2013-02-25 21:32:00,31.0,-99.9,-100.00,SE,134,4.0,4.0,-999,-99.99,,,-99.99,,2013-02-26 02:32:00,
2013-02-25 21:40:00,32.0,-99.9,-100.00,SE,128,3.0,4.0,-999,-99.99,,,-99.99,,2013-02-26 02:40:00,
2013-02-25 22:02:00,32.0,-99.9,-100.00,SE,128,3.0,4.0,-999,-99.99,,,-99.99,,2013-02-26 03:02:00,
2013-02-25 22:12:00,32.0,-99.9,-100.00,SE,128,3.0,4.0,-999,-99.99,,,-99.99,,2013-02-26 03:12:00,
2013-02-25 22:22:00,32.0,-99.9,-100.00,SE,128,3.0,4.0,-999,-99.99,,,-99.99,,2013-02-26 03:22:00,
2013-02-25 22:32:00,32.0,-99.9,-100.00,SE,128,3.0,4.0,-999,-99.99,,,-99.99,,2013-02-26 03:32:00,
2013-02-25 22:40:00,32.0,-99.9,-100.00,ESE,121,2.0,3.0,-999,-99.99,,,-99.99,,2013-02-26 03:40:00,
2013-02-25 23:02:00,32.0,-99.9,-100.00,ESE,121,2.0,3.0,-999,-99.99,,,-99.99,,2013-02-26 04:02:00,
2013-02-25 23:12:00,32.0,-99.9,-100.00,ESE,121,2.0,3.0,-999,-99.99,,,-99.99,,2013-02-26 04:12:00,
2013-02-25 23:22:00,32.0,-99.9,-100.00,ESE,121,2.0,3.0,-999,-99.99,,,-99.99,,2013-02-26 04:22:00,
2013-02-25 23:32:00,32.0,-99.9,-100.00,ESE,121,2.0,3.0,-999,-99.99,,,-99.99,,2013-02-26 04:32:00,
2013-02-25 23:40:00,32.0,-99.9,-100.00,ESE,120,1.0,2.0,-999,-99.99,,,-99.99,,2013-02-26 04:40:00,